Canterbury, New Hampshire
Current Conditions -  °F | °C
As of 4:51 PM on Monday 24 Nov 2014 (Local Time) from KCON Reporting Station
Broken Clouds Broken Clouds  
Wind Chill: 63°   Ceiling: 3500
Heat Index: 63°   Visibility: 10mi
Dew Point: 57°   Wind: 10mph
Humidity: 81%   Direction: 180°S
Pressure: 29.53"   Gusts: NA
Location:  43.34°N, 71.57°W
Report Text: KCON 242151Z AUTO 18009KT 10SM SCT028 BKN035 17/14 A2953 RMK AO2 SLP000 T01720139
Loading
Personal Weather Stations






























Interactive Weather Map New forecast layout! Learn more

10-Day Weather Forecast

Advertisements
Track Severe Weather on mobile